Time;durP1;ratioP1;P1;durP2;ratioP2;P2;SDS_P1;SDS_P2;PMS_P1;PMS_P2;Temp;Humidity;BMP_temperature;BMP_pressure;BME280_temperature;BME280_humidity;BME280_pressure;Samples;Min_cycle;Max_cycle;Signal;HPM_P1;HPM_P2
2022/06/01 00:00:43;;;;;;;3.13;1.27;;;;;;;28.94;22.60;97884.38;5040940;28;20166;-80
2022/06/01 00:03:10;;;;;;;2.25;0.90;;;;;;;29.18;21.97;97879.69;5043325;28;20499;-80
2022/06/01 00:05:36;;;;;;;1.75;1.10;;;;;;;28.83;22.30;97892.56;5042824;28;20489;-80
2022/06/01 00:08:03;;;;;;;2.50;1.08;;;;;;;29.13;22.28;97893.66;5043510;28;20036;-80
2022/06/01 00:10:29;;;;;;;1.05;0.80;;;;;;;29.85;21.18;97887.09;5037250;28;20044;-80
2022/06/01 00:12:56;;;;;;;0.65;0.65;;;;;;;30.17;21.04;97894.00;5038704;28;20108;-80
2022/06/01 00:15:25;;;;;;;2.08;0.95;;;;;;;29.94;21.53;97887.06;5039229;28;20017;-80
2022/06/01 00:17:52;;;;;;;0.95;0.80;;;;;;;30.04;21.83;97877.22;5038446;28;20439;-79
2022/06/01 00:20:19;;;;;;;1.05;0.77;;;;;;;30.23;21.40;97875.06;5038302;28;20026;-79
2022/06/01 00:22:45;;;;;;;1.45;0.90;;;;;;;30.55;21.24;97877.88;5036580;28;21654;-80
2022/06/01 00:25:14;;;;;;;0.85;0.73;;;;;;;30.83;20.25;97874.84;5041105;28;20544;-80
2022/06/01 00:27:40;;;;;;;0.63;0.63;;;;;;;30.95;20.53;97873.84;5038788;28;20033;-79
2022/06/01 00:30:09;;;;;;;1.15;0.63;;;;;;;30.77;20.77;97884.03;5040096;28;20033;-79
2022/06/01 00:32:35;;;;;;;0.82;0.80;;;;;;;30.95;20.16;97879.50;5040040;28;20029;-79
2022/06/01 00:35:03;;;;;;;1.80;0.80;;;;;;;31.13;20.31;97873.66;5039493;28;20377;-80
2022/06/01 00:37:29;;;;;;;1.42;0.60;;;;;;;31.02;20.32;97876.28;5038884;28;20040;-79
2022/06/01 00:39:56;;;;;;;1.02;0.77;;;;;;;30.85;20.30;97877.97;5038444;28;20512;-79
2022/06/01 00:42:25;;;;;;;0.70;0.70;;;;;;;30.58;20.36;97870.47;5041864;28;20208;-79
2022/06/01 00:44:53;;;;;;;1.17;0.80;;;;;;;30.56;20.66;97870.97;5038435;28;20084;-79
2022/06/01 00:47:21;;;;;;;0.90;0.77;;;;;;;30.74;20.21;97876.47;5039429;28;20025;-79
2022/06/01 00:49:53;;;;;;;0.88;0.55;;;;;;;30.54;20.61;97884.84;5038697;28;20047;-79
2022/06/01 00:52:37;;;;;;;1.35;0.60;;;;;;;29.49;21.46;97879.47;5038115;28;20037;-80
2022/06/01 00:55:16;;;;;;;0.95;0.85;;;;;;;28.67;22.44;97875.94;5025591;28;20029;-79
2022/06/01 00:57:46;;;;;;;1.38;0.98;;;;;;;29.36;21.65;97864.72;5043218;28;20025;-80
2022/06/01 01:00:27;;;;;;;1.23;0.60;;;;;;;29.77;21.50;97868.88;5042147;28;20033;-79
2022/06/01 01:02:56;;;;;;;1.27;0.80;;;;;;;30.09;20.78;97873.75;5041613;28;20061;-79
2022/06/01 01:05:23;;;;;;;0.50;0.50;;;;;;;30.67;20.28;97868.34;5037432;28;20071;-80
2022/06/01 01:07:52;;;;;;;0.90;0.77;;;;;;;31.03;19.92;97866.50;5040326;28;20056;-79
2022/06/01 01:10:19;;;;;;;1.40;0.70;;;;;;;31.23;19.75;97867.41;5038094;28;20124;-80
2022/06/01 01:13:04;;;;;;;1.10;0.60;;;;;;;31.47;19.53;97864.50;5037248;28;20048;-80
2022/06/01 01:15:39;;;;;;;2.30;0.60;;;;;;;31.62;19.28;97870.19;5038387;28;22158;-80
2022/06/01 01:18:12;;;;;;;1.42;0.70;;;;;;;31.70;19.28;97866.44;5046468;28;20025;-79
2022/06/01 01:20:53;;;;;;;1.27;0.40;;;;;;;31.72;19.02;97869.56;5039232;28;21241;-79
2022/06/01 01:23:40;;;;;;;1.10;0.70;;;;;;;31.76;19.29;97867.34;5037463;28;20021;-80
2022/06/01 01:26:07;;;;;;;2.05;0.50;;;;;;;31.81;19.58;97872.28;5037257;28;20067;-80
2022/06/01 01:28:34;;;;;;;0.90;0.60;;;;;;;31.77;19.58;97865.25;5036188;28;20072;-79
2022/06/01 01:31:20;;;;;;;0.90;0.57;;;;;;;31.64;20.12;97864.78;5040527;28;20029;-79
2022/06/01 01:33:49;;;;;;;0.90;0.50;;;;;;;31.63;19.63;97861.16;5036611;28;20652;-79
2022/06/01 01:36:17;;;;;;;2.30;0.70;;;;;;;31.73;19.73;97867.53;5024709;28;20032;-79
2022/06/01 01:38:55;;;;;;;0.63;0.60;;;;;;;31.49;19.91;97855.50;5039125;28;20060;-79
2022/06/01 01:41:24;;;;;;;1.10;0.70;;;;;;;31.19;20.39;97849.81;5037664;28;20037;-79
2022/06/01 01:44:18;;;;;;;0.60;0.60;;;;;;;31.35;20.02;97849.31;5041210;28;20461;-79
2022/06/01 01:46:49;;;;;;;2.50;0.75;;;;;;;31.64;20.08;97853.44;5034460;28;20139;-79
2022/06/01 01:49:23;;;;;;;0.73;0.40;;;;;;;31.79;19.53;97854.19;5038501;28;20037;-79
2022/06/01 01:51:52;;;;;;;0.95;0.40;;;;;;;31.98;19.58;97847.81;5036890;28;20059;-79
2022/06/01 01:54:42;;;;;;;0.70;0.65;;;;;;;32.12;19.62;97856.78;5038274;28;20098;-79
2022/06/01 01:57:37;;;;;;;3.13;0.60;;;;;;;32.17;19.25;97864.59;5047064;28;20098;-79
2022/06/01 02:00:27;;;;;;;1.05;0.60;;;;;;;32.16;19.42;97860.97;5044830;28;20651;-79
2022/06/01 02:03:05;;;;;;;0.68;0.68;;;;;;;31.27;20.91;97862.31;5043246;28;20029;-79
2022/06/01 02:06:04;;;;;;;0.60;0.60;;;;;;;31.21;20.45;97869.16;5040430;28;20400;-79
2022/06/01 02:08:51;;;;;;;0.57;0.50;;;;;;;31.01;21.01;97880.41;5040296;28;20393;-79
2022/06/01 02:14:38;;;;;;;1.08;0.60;;;;;;;30.69;21.36;97879.22;5042939;28;20107;-79
2022/06/01 02:17:10;;;;;;;0.90;0.60;;;;;;;30.61;21.29;97867.47;5041544;28;20064;-79
2022/06/01 02:19:48;;;;;;;1.23;0.68;;;;;;;30.49;21.15;97871.31;5040372;28;20033;-79
2022/06/01 02:22:15;;;;;;;0.50;0.50;;;;;;;30.51;21.38;97868.00;5039856;28;20120;-79
2022/06/01 02:24:42;;;;;;;0.60;0.60;;;;;;;30.84;21.05;97863.03;5041689;28;20038;-79
2022/06/01 02:27:09;;;;;;;0.73;0.63;;;;;;;31.09;20.56;97861.72;5046549;28;20040;-79
2022/06/01 02:29:54;;;;;;;1.08;0.50;;;;;;;31.01;20.42;97852.03;5041633;28;20044;-79
2022/06/01 02:32:22;;;;;;;1.00;0.68;;;;;;;31.07;20.86;97848.03;5042896;28;20106;-79
2022/06/01 02:34:49;;;;;;;0.70;0.70;;;;;;;31.14;20.61;97852.53;5040886;28;20122;-79
2022/06/01 02:37:17;;;;;;;4.22;0.65;;;;;;;31.28;20.60;97852.53;5039469;28;20041;-79
2022/06/01 02:39:54;;;;;;;0.60;0.60;;;;;;;31.36;20.56;97862.25;5041751;28;20045;-79
2022/06/01 02:42:26;;;;;;;0.60;0.55;;;;;;;31.55;20.37;97877.03;5039192;28;20048;-79
2022/06/01 02:45:00;;;;;;;0.75;0.60;;;;;;;31.62;20.53;97887.22;5039209;28;20036;-80
2022/06/01 02:47:28;;;;;;;0.70;0.50;;;;;;;31.55;20.57;97901.81;5040817;28;20074;-79
2022/06/01 02:49:54;;;;;;;1.52;0.77;;;;;;;31.50;20.69;97908.94;5044419;28;20037;-79
2022/06/01 02:52:21;;;;;;;1.33;0.90;;;;;;;31.51;20.35;97901.97;5043029;28;20045;-79
2022/06/01 02:54:48;;;;;;;0.73;0.70;;;;;;;31.50;20.46;97905.31;5042326;28;20037;-79
2022/06/01 02:57:16;;;;;;;1.02;0.95;;;;;;;31.20;20.90;97901.66;5038179;28;20078;-79
2022/06/01 02:59:43;;;;;;;0.80;0.80;;;;;;;30.58;21.73;97895.97;5040658;28;20187;-79
2022/06/01 03:02:09;;;;;;;1.20;0.80;;;;;;;29.76;22.65;97904.09;5041884;28;20021;-79
2022/06/01 03:04:37;;;;;;;1.85;1.05;;;;;;;29.71;22.72;97899.81;5041610;28;20385;-79
2022/06/01 03:07:04;;;;;;;0.90;0.50;;;;;;;30.17;22.38;97916.66;5040751;28;20064;-79
2022/06/01 03:09:31;;;;;;;0.50;0.50;;;;;;;30.68;21.48;97923.78;5040172;28;20110;-79
2022/06/01 03:11:57;;;;;;;1.05;0.75;;;;;;;30.90;21.35;97929.16;5042999;28;20091;-79
2022/06/01 03:14:23;;;;;;;0.68;0.60;;;;;;;30.60;21.53;97928.22;5041449;28;20409;-79
2022/06/01 03:16:50;;;;;;;0.95;0.75;;;;;;;30.80;21.41;97926.84;5042362;28;20131;-79
2022/06/01 03:19:16;;;;;;;1.63;0.70;;;;;;;31.14;21.08;97935.56;5045611;28;20025;-79
2022/06/01 03:21:43;;;;;;;2.28;0.70;;;;;;;31.35;20.86;97947.84;5039762;28;20047;-79
2022/06/01 03:24:09;;;;;;;1.30;0.93;;;;;;;31.44;20.67;97950.63;5042271;28;20443;-79
2022/06/01 03:26:36;;;;;;;1.15;0.70;;;;;;;31.27;20.65;97955.94;5042047;28;20083;-78
2022/06/01 03:29:04;;;;;;;2.05;0.85;;;;;;;31.07;20.91;97955.81;5042745;28;20032;-79
2022/06/01 03:31:31;;;;;;;0.93;0.80;;;;;;;31.08;21.05;97965.09;5038102;28;20140;-79
2022/06/01 03:33:57;;;;;;;2.70;0.70;;;;;;;31.17;20.96;97960.13;5039857;28;20038;-79
2022/06/01 03:36:24;;;;;;;1.70;0.90;;;;;;;31.18;20.62;97970.19;5037878;28;20037;-79
2022/06/01 03:38:50;;;;;;;1.35;0.93;;;;;;;31.30;20.45;97966.31;5043342;28;20021;-79
2022/06/01 03:41:16;;;;;;;1.23;0.80;;;;;;;31.34;20.59;97958.41;5043035;28;20469;-79
2022/06/01 03:46:30;;;;;;;3.13;0.85;;;;;;;31.34;20.46;97957.63;5042945;28;20075;-79
2022/06/01 03:48:56;;;;;;;1.73;1.00;;;;;;;31.16;21.21;97960.59;5041465;28;20401;-79
2022/06/01 03:51:24;;;;;;;2.00;1.25;;;;;;;30.84;21.06;97967.91;5044359;28;20036;-79
2022/06/01 03:53:50;;;;;;;1.98;1.30;;;;;;;30.52;21.76;97977.25;5041340;28;20894;-79
2022/06/01 03:56:16;;;;;;;1.67;1.33;;;;;;;30.51;21.66;97973.63;5040942;28;20032;-79
2022/06/01 03:58:42;;;;;;;1.20;1.02;;;;;;;30.57;21.86;97968.09;5044924;28;20112;-79
2022/06/01 04:01:09;;;;;;;1.85;1.13;;;;;;;30.94;21.45;97977.19;5044570;28;20032;-79
2022/06/01 04:03:36;;;;;;;3.40;1.23;;;;;;;31.37;20.89;97976.50;5044782;28;20021;-79
2022/06/01 04:06:02;;;;;;;1.17;1.08;;;;;;;31.71;20.64;97978.75;5045870;28;20039;-79
2022/06/01 04:08:28;;;;;;;1.15;0.80;;;;;;;31.69;20.67;97978.44;5044055;28;20033;-78
2022/06/01 04:10:54;;;;;;;1.50;0.90;;;;;;;31.64;20.70;97976.28;5040514;28;20044;-78
2022/06/01 04:13:25;;;;;;;1.13;0.80;;;;;;;31.78;20.73;97986.88;5040076;28;20025;-79
2022/06/01 04:15:51;;;;;;;1.08;0.98;;;;;;;32.01;20.90;98003.06;5043864;28;20059;-79
2022/06/01 04:18:17;;;;;;;1.02;0.88;;;;;;;32.17;20.72;97990.41;5038760;28;20033;-79
2022/06/01 04:20:45;;;;;;;1.15;0.90;;;;;;;32.01;20.70;97979.53;5037648;28;20032;-79
2022/06/01 04:23:11;;;;;;;1.45;1.02;;;;;;;31.97;21.00;97979.72;5035071;28;20036;-78
2022/06/01 04:25:37;;;;;;;1.45;1.00;;;;;;;31.90;21.22;97982.94;5022556;28;20064;-79
2022/06/01 04:28:04;;;;;;;1.38;0.95;;;;;;;31.79;21.41;97987.63;5024714;28;20116;-78
2022/06/01 04:30:30;;;;;;;1.42;1.00;;;;;;;31.82;21.57;97987.47;5037091;28;20036;-78
2022/06/01 04:32:57;;;;;;;1.13;0.90;;;;;;;31.68;21.70;97985.38;5039274;28;20045;-78
2022/06/01 04:35:24;;;;;;;0.88;0.82;;;;;;;31.55;22.61;97990.59;5042615;28;20040;-79
2022/06/01 04:37:50;;;;;;;1.35;0.98;;;;;;;31.61;22.27;98002.81;5044363;28;20041;-78
2022/06/01 04:40:18;;;;;;;1.38;1.00;;;;;;;31.92;21.95;97996.66;5039010;28;20040;-79
2022/06/01 04:42:44;;;;;;;1.00;1.00;;;;;;;31.83;22.06;97999.59;5043700;28;20053;-78
2022/06/01 04:45:12;;;;;;;1.52;1.25;;;;;;;31.26;22.72;98008.28;5040060;28;20040;-80
2022/06/01 04:47:39;;;;;;;1.42;1.10;;;;;;;31.22;22.79;98013.38;5043198;28;20043;-79
2022/06/01 04:50:06;;;;;;;0.60;0.50;;;;;;;31.57;23.17;98009.94;5041762;28;20481;-79
2022/06/01 04:52:32;;;;;;;0.70;0.70;;;;;;;31.94;22.45;98016.84;5043478;28;20095;-79
2022/06/01 04:54:59;;;;;;;1.02;0.75;;;;;;;32.11;22.41;98003.75;5043532;28;20033;-79
2022/06/01 04:57:25;;;;;;;2.08;1.20;;;;;;;32.09;22.08;97987.16;5027511;28;20051;-79
2022/06/01 04:59:51;;;;;;;2.15;1.08;;;;;;;31.56;22.81;97979.97;5036342;28;20032;-79
2022/06/01 05:02:17;;;;;;;2.20;1.05;;;;;;;31.30;23.50;97980.50;5041805;28;20041;-79
2022/06/01 05:04:43;;;;;;;0.75;0.75;;;;;;;31.43;24.02;97977.44;5044230;28;20033;-79
2022/06/01 05:07:09;;;;;;;1.65;1.00;;;;;;;31.87;23.79;97983.94;5038870;28;20496;-78
2022/06/01 05:09:35;;;;;;;1.17;0.82;;;;;;;32.17;23.03;97981.88;5042825;28;20509;-76
2022/06/01 05:12:02;;;;;;;1.42;1.05;;;;;;;32.39;22.31;97982.25;5041539;28;20448;-77
2022/06/01 05:14:28;;;;;;;2.67;1.05;;;;;;;32.68;22.37;97996.41;5038563;28;20400;-78
2022/06/01 05:16:58;;;;;;;0.80;0.77;;;;;;;32.88;21.45;98009.88;5042004;28;20044;-78
2022/06/01 05:19:24;;;;;;;1.70;1.00;;;;;;;32.68;21.43;98002.06;5037360;28;20041;-79
2022/06/01 05:21:50;;;;;;;1.42;1.05;;;;;;;32.05;22.14;97992.28;5042489;28;20032;-78
2022/06/01 05:24:17;;;;;;;1.65;1.52;;;;;;;31.73;22.86;97993.22;5048049;28;20083;-80
2022/06/01 05:26:43;;;;;;;1.98;1.50;;;;;;;31.55;23.52;97992.63;5039209;28;20037;-79
2022/06/01 05:29:09;;;;;;;3.47;1.20;;;;;;;31.19;23.34;97997.31;5037708;28;20032;-79
2022/06/01 05:31:35;;;;;;;1.20;1.10;;;;;;;30.88;23.76;97994.06;5040914;28;20037;-79
2022/06/01 05:34:01;;;;;;;1.65;1.38;;;;;;;30.96;24.13;97986.78;5042390;28;20033;-79
2022/06/01 05:36:29;;;;;;;1.20;1.10;;;;;;;31.22;23.89;97978.53;5041746;28;20036;-79
2022/06/01 05:38:55;;;;;;;1.60;1.20;;;;;;;31.82;23.62;97975.31;5038557;28;20535;-79
2022/06/01 05:41:21;;;;;;;3.10;1.05;;;;;;;32.21;23.71;97993.06;5048104;28;20055;-79
2022/06/01 05:43:49;;;;;;;4.75;1.27;;;;;;;32.19;22.71;97972.84;5036522;28;20039;-79
2022/06/01 05:46:15;;;;;;;1.63;1.10;;;;;;;32.15;23.37;97972.28;5039853;28;20488;-79
2022/06/01 05:48:41;;;;;;;1.48;1.30;;;;;;;32.43;22.68;97971.44;5038445;28;20069;-79
2022/06/01 05:51:07;;;;;;;3.05;1.73;;;;;;;32.01;23.14;97971.81;5039742;28;20381;-79
2022/06/01 05:53:33;;;;;;;1.67;1.40;;;;;;;31.74;23.79;97971.31;5041202;28;20485;-79
2022/06/01 05:55:59;;;;;;;2.67;1.20;;;;;;;32.11;23.72;97980.22;5038230;28;20503;-79
2022/06/01 05:58:27;;;;;;;1.90;1.45;;;;;;;32.67;22.85;97988.38;5040841;28;20499;-79
2022/06/01 06:00:55;;;;;;;2.45;1.30;;;;;;;32.95;23.37;97981.00;5040641;28;20088;-79
2022/06/01 06:03:26;;;;;;;1.13;1.00;;;;;;;33.26;23.17;97995.38;5040818;28;20388;-79
2022/06/01 06:08:49;;;;;;;2.03;1.48;;;;;;;32.87;23.22;97988.38;5040553;28;20048;-79
2022/06/01 06:11:17;;;;;;;2.42;1.60;;;;;;;33.15;23.05;97991.63;5038140;28;20053;-78
2022/06/01 06:13:44;;;;;;;2.33;1.10;;;;;;;33.53;22.94;97993.38;5039325;28;20458;-79
2022/06/01 06:16:12;;;;;;;1.85;1.30;;;;;;;33.70;23.02;97986.56;5042130;28;20029;-79
2022/06/01 06:18:38;;;;;;;1.95;1.50;;;;;;;34.03;22.99;97995.47;5040068;28;20047;-79
2022/06/01 06:21:04;;;;;;;1.60;1.40;;;;;;;34.23;22.17;97996.69;5041236;28;20040;-79
2022/06/01 06:23:31;;;;;;;1.13;1.02;;;;;;;33.98;21.88;97993.31;5037511;28;20105;-79
2022/06/01 06:25:57;;;;;;;1.83;1.00;;;;;;;34.49;21.69;98005.94;5041796;28;20061;-79
2022/06/01 06:28:24;;;;;;;3.05;1.15;;;;;;;34.91;21.30;97991.72;5043824;28;20061;-79
2022/06/01 06:30:51;;;;;;;1.95;1.23;;;;;;;35.24;20.46;97994.00;5041674;28;20106;-79
2022/06/01 06:33:17;;;;;;;1.42;0.98;;;;;;;35.23;20.84;97993.19;5045151;28;20029;-79
2022/06/01 06:35:44;;;;;;;0.80;0.73;;;;;;;34.69;21.56;97994.44;5040863;28;20121;-79
2022/06/01 06:38:11;;;;;;;1.13;0.80;;;;;;;34.66;21.85;97990.53;5042731;28;20033;-79
2022/06/01 06:40:37;;;;;;;1.42;0.88;;;;;;;34.78;21.86;97999.16;5048162;28;20044;-79
2022/06/01 06:43:04;;;;;;;0.82;0.55;;;;;;;34.89;21.04;97996.38;5046834;28;20035;-79
2022/06/01 06:45:30;;;;;;;1.17;0.70;;;;;;;35.30;21.03;97989.06;5041811;28;20064;-79
2022/06/01 06:47:56;;;;;;;0.80;0.70;;;;;;;35.29;19.54;97996.84;5045942;28;20056;-79
2022/06/01 06:50:23;;;;;;;0.57;0.57;;;;;;;35.51;20.50;98001.09;5046733;28;20033;-79
2022/06/01 06:52:49;;;;;;;0.40;0.40;;;;;;;35.51;20.58;97995.41;5042028;28;20479;-79
2022/06/01 06:55:15;;;;;;;1.33;0.65;;;;;;;35.30;20.19;98003.34;5045419;28;20040;-79
2022/06/01 06:57:43;;;;;;;1.08;0.60;;;;;;;35.37;20.29;98009.34;5030215;28;20033;-79
2022/06/01 07:00:11;;;;;;;0.77;0.60;;;;;;;35.36;19.81;98015.56;5044661;28;20056;-79
2022/06/01 07:02:37;;;;;;;0.75;0.70;;;;;;;35.19;19.94;98012.66;5044660;28;20032;-79
2022/06/01 07:05:04;;;;;;;1.33;0.68;;;;;;;35.01;21.08;98015.13;5043405;28;20034;-79
2022/06/01 07:07:30;;;;;;;1.27;0.77;;;;;;;34.76;20.40;98028.19;5043600;28;20033;-79
2022/06/01 07:09:56;;;;;;;2.47;0.68;;;;;;;34.82;21.08;98013.97;5029038;28;20066;-79
2022/06/01 07:12:22;;;;;;;2.15;0.60;;;;;;;34.86;20.79;98014.50;5047136;28;20146;-79
2022/06/01 07:14:48;;;;;;;0.50;0.40;;;;;;;34.09;20.74;98015.47;5029961;28;20125;-79
2022/06/01 07:17:14;;;;;;;1.23;0.70;;;;;;;33.74;21.81;98009.94;5041600;28;20144;-79
2022/06/01 07:19:40;;;;;;;1.45;0.40;;;;;;;33.75;21.39;98011.47;5041014;28;20038;-79
2022/06/01 07:22:06;;;;;;;0.73;0.50;;;;;;;33.62;21.12;98016.00;5043348;28;20033;-79
2022/06/01 07:24:32;;;;;;;0.68;0.40;;;;;;;33.76;21.43;98020.81;5042818;28;20070;-79
2022/06/01 07:26:58;;;;;;;1.17;0.70;;;;;;;33.84;21.47;98017.00;5042681;28;20029;-79
2022/06/01 07:29:24;;;;;;;0.50;0.50;;;;;;;34.00;21.53;98016.38;5042823;28;20035;-79
2022/06/01 07:31:50;;;;;;;3.72;0.60;;;;;;;33.91;21.19;98016.56;5044696;28;20033;-79
2022/06/01 07:34:17;;;;;;;4.90;0.68;;;;;;;33.65;21.76;98015.00;5040635;28;20516;-79
2022/06/01 07:36:45;;;;;;;0.82;0.82;;;;;;;33.46;21.80;98010.88;5041300;28;20037;-79
2022/06/01 07:44:50;;;;;;;0.80;0.55;;;;;;;33.45;22.53;98007.25;5043344;28;20099;-79
2022/06/01 07:47:17;;;;;;;0.50;0.50;;;;;;;33.40;23.13;98016.50;5043036;28;20075;-79
2022/06/01 07:49:43;;;;;;;0.90;0.60;;;;;;;33.13;22.93;98025.47;5044065;28;20041;-79
2022/06/01 07:52:11;;;;;;;1.00;0.80;;;;;;;33.35;23.18;98022.94;5044616;28;20029;-79
2022/06/01 07:54:39;;;;;;;1.15;0.70;;;;;;;33.66;23.37;98033.66;5039766;28;20517;-79
2022/06/01 07:57:06;;;;;;;1.55;0.65;;;;;;;33.69;22.56;98035.50;5041616;28;20080;-79
2022/06/01 07:59:32;;;;;;;0.70;0.50;;;;;;;33.93;23.22;98036.03;5042159;28;20053;-79
2022/06/01 08:01:59;;;;;;;0.85;0.65;;;;;;;33.68;22.31;98042.50;5045841;28;20052;-79
2022/06/01 08:04:25;;;;;;;0.60;0.60;;;;;;;33.67;22.48;98046.63;5042224;28;20053;-79
2022/06/01 08:06:51;;;;;;;0.50;0.50;;;;;;;33.95;22.93;98054.19;5043263;28;20142;-79
2022/06/01 08:09:18;;;;;;;0.50;0.40;;;;;;;33.60;22.75;98058.44;5039069;28;20029;-79
2022/06/01 08:14:33;;;;;;;0.65;0.60;;;;;;;33.54;22.84;98061.22;5037432;28;20061;-79
2022/06/01 08:16:59;;;;;;;0.60;0.40;;;;;;;33.54;23.11;98055.50;5040622;28;20477;-79
2022/06/01 08:19:25;;;;;;;1.58;0.60;;;;;;;33.49;23.02;98061.91;5047451;28;20419;-79
2022/06/01 08:21:51;;;;;;;0.68;0.60;;;;;;;33.61;22.91;98062.88;5042930;28;20128;-79
2022/06/01 08:24:17;;;;;;;0.70;0.50;;;;;;;33.86;23.05;98057.19;5047602;28;20033;-79
2022/06/01 08:26:43;;;;;;;0.65;0.50;;;;;;;33.98;22.67;98064.56;5041513;28;20033;-79
2022/06/01 08:29:09;;;;;;;1.58;0.60;;;;;;;34.14;22.94;98068.13;5041841;28;20083;-79
2022/06/01 08:31:35;;;;;;;0.68;0.45;;;;;;;34.58;22.36;98071.38;5044929;28;20075;-79
2022/06/01 08:34:04;;;;;;;0.55;0.40;;;;;;;34.91;22.53;98070.84;5042997;28;20461;-79
2022/06/01 08:36:31;;;;;;;0.43;0.40;;;;;;;34.96;21.62;98070.84;5041879;28;20461;-78
2022/06/01 08:38:57;;;;;;;0.60;0.40;;;;;;;34.96;22.86;98073.72;5044108;28;20029;-79
2022/06/01 08:41:31;;;;;;;4.57;0.60;;;;;;;34.56;22.90;98076.81;5047708;28;20103;-79
2022/06/01 08:44:06;;;;;;;0.95;0.55;;;;;;;34.66;22.91;98070.41;5039900;28;20033;-79
2022/06/01 08:46:34;;;;;;;0.57;0.57;;;;;;;34.94;23.21;98062.03;5039534;28;20036;-79
2022/06/01 08:49:06;;;;;;;1.20;0.52;;;;;;;35.28;22.49;98054.47;5032887;28;20167;-79
2022/06/01 08:51:33;;;;;;;0.50;0.50;;;;;;;35.66;21.74;98058.81;5038914;28;20040;-79
2022/06/01 08:54:01;;;;;;;1.02;0.63;;;;;;;35.71;21.84;98055.19;5042364;28;20029;-79
2022/06/01 08:56:41;;;;;;;0.73;0.60;;;;;;;35.70;20.77;98057.28;5032920;28;20084;-78
2022/06/01 08:59:40;;;;;;;1.30;0.52;;;;;;;35.67;21.11;98049.72;5039457;28;20029;-79
2022/06/01 09:02:44;;;;;;;0.55;0.40;;;;;;;35.49;22.63;98061.59;5042559;28;20072;-78
2022/06/01 09:05:29;;;;;;;0.43;0.43;;;;;;;35.95;21.55;98053.44;5032048;28;20040;-79
2022/06/01 09:08:18;;;;;;;1.75;0.50;;;;;;;36.42;22.03;98056.63;5034950;28;20107;-79
2022/06/01 09:10:57;;;;;;;0.85;0.57;;;;;;;36.63;21.06;98052.22;5035037;28;20103;-79
2022/06/01 09:13:52;;;;;;;0.93;0.73;;;;;;;35.84;20.64;98041.97;5036774;28;20117;-79
2022/06/01 09:16:35;;;;;;;0.88;0.50;;;;;;;36.03;20.83;98045.16;5030209;28;20038;-79
2022/06/01 09:19:02;;;;;;;0.85;0.63;;;;;;;36.24;20.80;98049.34;5038783;28;20029;-79
2022/06/01 09:24:34;;;;;;;2.63;0.63;;;;;;;36.06;21.13;98053.47;5033083;28;20060;-79
2022/06/01 09:27:03;;;;;;;0.85;0.57;;;;;;;36.42;20.89;98050.91;5033007;28;20037;-79
2022/06/01 09:29:33;;;;;;;1.27;0.77;;;;;;;36.80;20.40;98053.00;5034444;28;20056;-79
2022/06/01 09:32:08;;;;;;;0.85;0.50;;;;;;;36.60;19.89;98044.69;5041492;28;20047;-79
2022/06/01 09:34:38;;;;;;;0.40;0.40;;;;;;;36.31;21.24;98045.97;5040981;28;20388;-79
2022/06/01 09:37:12;;;;;;;1.25;1.15;;;;;;;35.91;20.83;98043.56;5050329;28;20067;-79
2022/06/01 09:39:49;;;;;;;0.80;0.60;;;;;;;36.08;21.21;98045.16;5036553;28;20086;-79
2022/06/01 09:42:20;;;;;;;0.70;0.70;;;;;;;36.38;21.13;98044.66;5043460;28;20032;-79
2022/06/01 09:44:48;;;;;;;1.95;0.70;;;;;;;36.67;20.36;98049.88;5043627;28;20041;-80
2022/06/01 09:47:36;;;;;;;0.82;0.60;;;;;;;36.72;20.00;98049.09;5044711;28;20440;-79
2022/06/01 09:50:05;;;;;;;1.88;0.70;;;;;;;36.19;20.93;98044.41;5040162;28;20033;-80
2022/06/01 09:52:40;;;;;;;1.00;0.90;;;;;;;35.83;20.20;98039.63;5040291;28;20029;-80
2022/06/01 09:55:17;;;;;;;1.02;0.80;;;;;;;35.96;21.31;98046.44;5040802;28;20521;-80
2022/06/01 09:57:44;;;;;;;0.60;0.60;;;;;;;36.34;20.71;98042.06;5038532;28;20040;-80
2022/06/01 10:06:12;;;;;;;0.98;0.77;;;;;;;35.52;21.86;98042.66;5040994;28;20041;-80
2022/06/01 10:08:43;;;;;;;0.50;0.50;;;;;;;35.54;21.34;98046.56;5040087;28;20079;-81
2022/06/01 10:11:30;;;;;;;3.97;0.80;;;;;;;34.71;21.93;98044.00;5040569;28;20040;-80
2022/06/01 10:14:16;;;;;;;0.77;0.77;;;;;;;34.60;22.18;98041.06;5039226;28;20040;-79
2022/06/01 10:17:01;;;;;;;1.10;0.73;;;;;;;35.03;22.54;98043.97;5041017;28;20033;-80
2022/06/01 10:19:45;;;;;;;0.73;0.70;;;;;;;34.80;22.45;98039.38;5044202;28;20488;-80
2022/06/01 10:22:18;;;;;;;0.60;0.57;;;;;;;35.70;21.09;98040.13;5042316;28;20040;-80
2022/06/01 10:24:57;;;;;;;0.60;0.60;;;;;;;36.46;20.05;98025.69;5043404;28;20048;-80
2022/06/01 10:27:32;;;;;;;1.00;0.57;;;;;;;36.40;20.11;98040.00;5042806;28;20041;-80
2022/06/01 10:30:19;;;;;;;0.50;0.50;;;;;;;35.70;20.90;98043.00;5043158;28;20033;-80
2022/06/01 10:32:56;;;;;;;0.60;0.50;;;;;;;35.72;20.72;98048.19;5041077;28;20035;-80
2022/06/01 10:35:36;;;;;;;0.52;0.52;;;;;;;35.30;21.67;98041.25;5044838;28;20060;-80
2022/06/01 10:38:24;;;;;;;0.60;0.60;;;;;;;35.29;21.55;98048.25;5024580;28;20037;-80
2022/06/01 10:41:06;;;;;;;0.73;0.52;;;;;;;36.26;20.13;98040.25;5043524;28;20045;-80
2022/06/01 10:43:55;;;;;;;0.60;0.60;;;;;;;35.67;19.71;98044.00;5026801;28;20029;-79
2022/06/01 10:46:43;;;;;;;0.65;0.50;;;;;;;34.50;22.22;98047.41;5042333;28;20041;-79
2022/06/01 10:49:34;;;;;;;0.82;0.57;;;;;;;34.93;21.13;98042.56;5044092;28;20110;-80
2022/06/01 10:52:23;;;;;;;0.60;0.60;;;;;;;35.24;20.72;98045.38;5022973;28;20045;-80
2022/06/01 10:55:12;;;;;;;0.82;0.70;;;;;;;35.39;20.88;98037.38;5045447;28;20091;-80
2022/06/01 10:57:41;;;;;;;0.50;0.50;;;;;;;35.17;19.58;98038.06;5045013;28;20033;-80
2022/06/01 11:00:12;;;;;;;0.52;0.52;;;;;;;35.09;19.46;98044.78;5050175;28;20025;-80
2022/06/01 11:03:08;;;;;;;0.47;0.45;;;;;;;33.90;21.58;98049.19;5025701;28;20383;-80
2022/06/01 11:05:37;;;;;;;0.90;0.60;;;;;;;34.05;20.47;98058.44;5041567;28;20045;-80
2022/06/01 11:08:34;;;;;;;0.73;0.60;;;;;;;35.03;19.92;98059.00;5044363;28;20037;-80
2022/06/01 11:11:18;;;;;;;0.60;0.57;;;;;;;35.81;18.84;98054.44;5042410;28;20064;-81
2022/06/01 11:14:11;;;;;;;0.50;0.50;;;;;;;35.84;19.80;98046.91;5041604;28;20087;-80
2022/06/01 11:16:56;;;;;;;0.50;0.50;;;;;;;35.03;20.83;98052.53;5045552;28;20036;-80
2022/06/01 11:19:39;;;;;;;0.40;0.40;;;;;;;35.30;18.70;98063.31;5024460;28;20060;-80
2022/06/01 11:23:04;;;;;;;0.40;0.40;;;;;;;35.54;19.11;98049.44;5041646;28;20507;-80
2022/06/01 11:25:56;;;;;;;0.50;0.50;;;;;;;36.23;18.64;98042.06;4989230;28;20038;-80
2022/06/01 11:28:41;;;;;;;0.60;0.50;;;;;;;35.57;17.38;98045.53;4991621;28;20482;-80
2022/06/01 11:31:22;;;;;;;0.30;0.30;;;;;;;35.58;19.09;98052.81;5037412;28;20045;-80
2022/06/01 11:33:57;;;;;;;1.48;0.70;;;;;;;36.08;17.53;98055.06;5038738;28;20060;-80
2022/06/01 11:36:23;;;;;;;0.40;0.40;;;;;;;35.52;17.83;98054.88;5041744;28;20041;-80
2022/06/01 11:38:56;;;;;;;0.63;0.50;;;;;;;35.53;18.59;98049.94;5040783;28;20037;-80
2022/06/01 11:41:31;;;;;;;2.15;0.40;;;;;;;35.51;18.40;98063.94;5044413;28;20038;-80
2022/06/01 11:44:21;;;;;;;0.40;0.40;;;;;;;36.93;17.50;98049.59;5044358;28;20040;-81
2022/06/01 11:46:59;;;;;;;0.80;0.40;;;;;;;37.52;15.96;98055.72;5040327;28;20033;-81
2022/06/01 11:49:31;;;;;;;0.65;0.32;;;;;;;37.94;13.87;98045.88;5039838;28;20041;-80
2022/06/01 11:52:14;;;;;;;0.43;0.30;;;;;;;38.43;14.88;98043.97;5042599;28;20037;-81
2022/06/01 11:54:40;;;;;;;0.43;0.32;;;;;;;38.21;14.83;98039.16;5040271;28;20057;-80
2022/06/01 11:57:38;;;;;;;1.70;0.38;;;;;;;37.63;15.74;98044.19;5042341;28;21008;-80
2022/06/01 12:00:14;;;;;;;0.30;0.30;;;;;;;37.20;14.96;98043.81;5045483;28;20063;-80
2022/06/01 12:02:40;;;;;;;0.45;0.30;;;;;;;36.42;17.08;98048.03;5047630;28;20033;-80
2022/06/01 12:05:26;;;;;;;0.50;0.50;;;;;;;36.19;15.78;98038.69;5041669;28;20136;-80
2022/06/01 12:08:21;;;;;;;0.68;0.35;;;;;;;35.77;16.58;98042.50;5035224;28;20072;-80
2022/06/01 12:11:03;;;;;;;0.20;0.20;;;;;;;37.37;14.83;98033.09;5042323;28;20529;-80
2022/06/01 12:13:52;;;;;;;0.63;0.40;;;;;;;37.25;15.25;98034.41;5045812;28;20533;-80
2022/06/01 12:16:25;;;;;;;0.30;0.30;;;;;;;37.35;15.64;98035.69;5042372;28;20120;-80
2022/06/01 12:19:02;;;;;;;0.20;0.20;;;;;;;37.83;15.64;98040.22;5040719;28;20041;-81
2022/06/01 12:21:33;;;;;;;0.47;0.40;;;;;;;34.91;17.17;98039.44;5041489;28;20587;-81